Flight Track Log - Related Links

Times and Time Zones

All times are in EDT time to prevent confusion due to time zone crossing. See the EGF2787 flight status page for this flight to view local times or setup timezone preferences in your user account.

Time Position Orientation Groundspeed Altitude Reporting Facility
EDT Latitude Longitude Course Direction KTS MPH feet Rate Location/Type
Wed 03:54:00 PM 27.7127 -99.3687 24° Northeast  Level FlightAware Approximate
Wed 03:55:00 PM 27.8018 -99.3264 18° North  Level FlightAware Approximate
Wed 03:56:00 PM 27.8936 -99.2920 18° North  Level FlightAware Approximate
Wed 03:57:00 PM 27.9806 -99.2450 28° Northeast  Level FlightAware Approximate
Wed 03:58:00 PM 28.0684 -99.1992 22° Northeast  Level FlightAware Approximate
Wed 03:59:00 PM 28.1578 -99.1575 22° Northeast  Level FlightAware Approximate
Wed 04:00:00 PM 28.2473 -99.1158 22° Northeast  Level FlightAware Approximate
Wed 04:01:00 PM 28.3368 -99.0742 22° Northeast  Level FlightAware Approximate
Wed 04:02:00 PM 28.4266 -99.0334 22° Northeast  Level FlightAware Approximate
Wed 04:03:00 PM 28.5152 -98.9899 30° Northeast  Level FlightAware Approximate
Wed 04:04:00 PM 28.6028 -98.9441 21° North  Level FlightAware Approximate
Wed 04:05:00 PM 28.6931 -98.9049 21° North  Level FlightAware Approximate
Wed 04:06:00 PM 28.7832 -98.8649 21° North  Level FlightAware Approximate
Wed 04:07:00 PM 28.8724 -98.8222 24° Northeast  Level FlightAware Approximate
Wed 04:08:00 PM 28.9610 -98.7779 24° Northeast  Level FlightAware Approximate
Wed 04:09:00 PM 29.0506 -98.7365 19° North  Level FlightAware Approximate
Wed 04:10:00 PM 29.1393 -98.6931 28° Northeast  Level FlightAware Approximate
Wed 04:11:00 PM 29.2271 -98.6472 21° North  Level FlightAware Approximate
Wed 04:12:00 PM 29.3173 -98.6071 21° North  Level FlightAware Approximate
Wed 04:13:00 PM 29.4062 -98.5636 24° Northeast  Level FlightAware Approximate
Wed 04:14:00 PM 29.4948 -98.5192 24° Northeast  Level FlightAware Approximate
Wed 04:15:00 PM 29.5835 -98.4749 23° Northeast  Level FlightAware Approximate
Wed 04:16:00 PM 29.6755 -98.4453 North  Level FlightAware Approximate
Wed 04:17:00 PM 29.7718 -98.4346 North  Level FlightAware Approximate
Wed 04:18:00 PM 29.8680 -98.4239 North  Level FlightAware Approximate
Wed 04:19:00 PM 29.9640 -98.4106 10° North  Level FlightAware Approximate
Wed 04:20:00 PM 30.0592 -98.3915 10° North  Level FlightAware Approximate
Wed 04:21:00 PM 30.1548 -98.3742 North  Level FlightAware Approximate
Wed 04:22:00 PM 30.2505 -98.3583 North  Level FlightAware Approximate
Wed 04:23:00 PM 30.3462 -98.3423 North  Level FlightAware Approximate
Wed 04:24:00 PM 30.4421 -98.3275 North  Level FlightAware Approximate
Wed 04:25:00 PM 30.5381 -98.3142 North  Level FlightAware Approximate
Wed 04:26:00 PM 30.6341 -98.3009 North  Level FlightAware Approximate
Wed 04:27:00 PM 30.7301 -98.2876 North  Level FlightAware Approximate
Wed 04:28:00 PM 30.8261 -98.2743 North  Level FlightAware Approximate
Wed 04:29:00 PM 30.9222 -98.2609 North  Level FlightAware Approximate
Wed 04:30:00 PM 31.0182 -98.2476 North  Level FlightAware Approximate
Wed 04:31:00 PM 31.1143 -98.2348 North  Level FlightAware Approximate
Wed 04:32:00 PM 31.2103 -98.2220 North  Level FlightAware Approximate
Wed 04:33:00 PM 31.3055 -98.2028 12° North  Level FlightAware Approximate
Wed 04:34:00 PM 31.4016 -98.1959 11° North  Level FlightAware Approximate
Wed 04:35:00 PM 31.4967 -98.1748 11° North  Level FlightAware Approximate
Wed 04:36:00 PM 31.5879 -98.1394 23° Northeast  Level FlightAware Approximate
Wed 04:37:00 PM 31.6789 -98.1015 16° North  Level FlightAware Approximate
Wed 04:38:00 PM 31.7796 -98.0519 23° Northeast  Level FlightAware Approximate
Wed 04:39:00 PM 31.8802 -98.0016 23° Northeast  Level FlightAware Approximate
Wed 04:40:00 PM 31.9809 -97.9561 26° Northeast  Level FlightAware Approximate
Wed 04:41:00 PM 32.0799 -97.9017 23° Northeast  Level FlightAware Approximate
Wed 04:42:00 PM 32.1736 -97.8392 45° Northeast  Level FlightAware Approximate
Wed 04:43:00 PM 32.2512 -97.7484 48° Northeast  Level FlightAware Approximate
Wed 04:44:00 PM 32.3329 -97.6669 23° Northeast  Level FlightAware Approximate
Wed 04:45:00 PM 32.3979 -97.5688 40° Northeast  Level FlightAware Approximate
Wed 04:46:00 PM 32.4791 -97.4826 50° Northeast  Level FlightAware Approximate
Wed 04:47:00 PM 32.5497 -97.3837 50° Northeast  Level FlightAware Approximate
Wed 04:48:00 PM 32.6313 -97.2976 44° Northeast  Level FlightAware Approximate
Wed 04:49:00 PM 32.7010 -97.2180 44° Northeast  Level FlightAware Approximate
Wed 04:50:00 PM 32.7657 -97.1343 40° Northeast  Level FlightAware Approximate
Wed 04:51:00 PM 32.8450 -97.0589 29° Northeast  Level FlightAware Approximate
Wed 04:52:00 PM 32.8833 -97.0333 29° Northeast  Level FlightAware Approximate
Wed 04:52:05 PM 32.9667 -97.0500 29° Northeast 124 143 1,500  Level Dallas / Fort Worth TRACON
Wed 04:52:59 PM 32.9333 -97.0500 180° South 126 145 900 -667 Descending Dallas / Fort Worth TRACON
Wed 04:53:00 PM 32.8968 -97.0380 29° Northeast  Level Estimated
Wed 04:54:00 PM 32.8968 -97.0380 29° Northeast  Level Estimated
Wed 04:54:00 PM 32.8968 -97.0380 29° Northeast  Level Estimated
Wed 04:55:00 PM 32.8968 -97.0380 29° Northeast  Level Estimated
Wed 04:56:00 PM 32.8968 -97.0380 29° Northeast  Level Estimated
Wed 04:57:00 PM 32.8968 -97.0380 29° Northeast  Level Estimated
Wed 05:01:00 PM 32.8968 -97.0380 29° Northeast  Level Estimated
Wed 05:02:00 PM 32.8968 -97.0380 29° Northeast  Level Estimated
Wed 05:03:00 PM 32.8968 -97.0380 29° Northeast  Level Estimated
Wed 05:04:00 PM 32.8968 -97.0380 29° Northeast  Level Estimated
Wed 05:05:00 PM 32.8968 -97.0380 29° Northeast  Level Estimated
Wed 05:06:00 PM 32.8968 -97.0380 29° Northeast  Level Estimated
Wed 05:07:00 PM 32.8968 -97.0380 29° Northeast  Level Estimated
Wed 05:08:00 PM 32.8968 -97.0380 29° Northeast  Level Estimated
Wed 05:09:00 PM 32.8968 -97.0380 29° Northeast  Level Estimated

Login

Don't have an account? Register now (free) for customized features, flight alerts, and more!